Time;durP1;ratioP1;P1;durP2;ratioP2;P2;SDS_P1;SDS_P2;PMS_P1;PMS_P2;Temp;Humidity;BMP_temperature;BMP_pressure;BME280_temperature;BME280_humidity;BME280_pressure;Samples;Min_cycle;Max_cycle;Signal;HPM_P1;HPM_P2
2021/04/15 00:00:34;;;;;;;6.10;4.40;;;3.90;66.60;;;1.98;65.84;96734.84;4920146;28;20047;-71
2021/04/15 00:03:05;;;;;;;6.55;4.20;;;3.90;66.80;;;1.96;65.74;96735.91;4963210;28;20039;-71
2021/04/15 00:05:31;;;;;;;7.32;4.68;;;3.90;66.60;;;1.96;64.52;96736.72;4930804;28;20027;-71
2021/04/15 00:07:57;;;;;;;5.95;4.32;;;3.80;66.30;;;1.96;65.10;96735.91;4919762;28;20046;-71
2021/04/15 00:10:33;;;;;;;7.68;4.88;;;3.90;66.40;;;1.94;65.81;96730.00;4933298;28;20468;-72
2021/04/15 00:12:59;;;;;;;6.97;4.60;;;3.80;66.00;;;1.91;64.62;96725.06;4919383;28;20065;-72
2021/04/15 00:15:25;;;;;;;8.52;5.13;;;3.80;66.10;;;1.89;65.05;96724.38;4933591;28;20046;-72
2021/04/15 00:17:50;;;;;;;6.82;4.72;;;3.70;66.20;;;1.84;65.21;96722.97;4936630;28;20412;-71
2021/04/15 00:20:16;;;;;;;8.52;5.28;;;3.70;66.20;;;1.81;64.57;96730.13;4967483;28;20061;-72
2021/04/15 00:22:42;;;;;;;6.63;4.55;;;3.70;66.20;;;1.77;65.28;96726.94;4964553;28;20421;-72
2021/04/15 00:25:08;;;;;;;8.77;4.90;;;3.70;66.20;;;1.73;65.54;96730.72;4935283;28;20065;-71
2021/04/15 00:27:34;;;;;;;9.50;4.82;;;3.70;66.10;;;1.71;65.06;96729.22;4945014;28;20039;-73
2021/04/15 00:30:00;;;;;;;7.65;5.13;;;3.50;66.10;;;1.65;65.29;96722.72;4954285;28;20074;-72
2021/04/15 00:32:26;;;;;;;6.50;4.90;;;3.60;66.20;;;1.62;65.66;96728.16;4934015;28;20113;-71
2021/04/15 00:34:51;;;;;;;7.82;4.43;;;3.50;66.20;;;1.58;65.37;96721.53;4951509;28;20474;-71
2021/04/15 00:37:17;;;;;;;8.02;5.10;;;3.50;66.20;;;1.56;64.88;96720.84;4938683;28;20634;-72
2021/04/15 00:39:43;;;;;;;6.93;5.00;;;3.40;66.30;;;1.50;65.36;96723.91;4949573;28;20130;-71
2021/04/15 00:42:09;;;;;;;7.50;4.40;;;3.30;66.60;;;1.45;65.54;96726.03;4950750;28;20085;-72
2021/04/15 00:44:35;;;;;;;7.13;4.70;;;3.20;66.90;;;1.39;65.72;96718.72;4960678;28;20023;-72
2021/04/15 00:47:06;;;;;;;9.15;5.28;;;3.10;67.10;;;1.34;66.20;96718.22;4948287;28;20110;-72
2021/04/15 00:49:42;;;;;;;6.97;4.72;;;3.10;67.30;;;1.29;67.31;96720.34;4964283;28;20031;-71
2021/04/15 00:52:10;;;;;;;7.25;5.00;;;3.10;67.50;;;1.22;65.90;96714.81;4950623;28;20034;-71
2021/04/15 00:54:56;;;;;;;7.03;5.40;;;3.00;67.70;;;1.16;66.86;96720.47;4919724;28;20102;-71
2021/04/15 00:57:37;;;;;;;6.38;4.93;;;3.00;68.00;;;1.10;67.19;96720.91;4938633;28;20085;-72
2021/04/15 01:00:12;;;;;;;7.32;4.95;;;3.00;68.30;;;1.06;67.39;96714.31;4927664;28;20027;-72
2021/04/15 01:02:37;;;;;;;8.27;4.88;;;2.90;68.70;;;1.01;66.52;96709.50;4931598;28;20322;-71
2021/04/15 01:05:19;;;;;;;8.65;4.78;;;2.80;68.80;;;1.00;67.91;96715.59;4947933;28;20138;-71
2021/04/15 01:07:45;;;;;;;8.35;5.07;;;2.80;68.90;;;0.95;66.42;96712.53;4950308;28;20495;-71
2021/04/15 01:10:11;;;;;;;9.07;5.47;;;2.80;69.10;;;0.93;67.04;96714.44;4929123;28;20027;-72
2021/04/15 01:13:14;;;;;;;7.85;5.20;;;2.80;69.20;;;0.90;68.04;96714.63;4919409;28;20038;-72
2021/04/15 01:16:16;;;;;;;8.15;5.22;;;2.70;69.20;;;0.86;68.17;96713.22;4956327;28;20121;-72
2021/04/15 01:19:03;;;;;;;8.90;5.55;;;2.70;69.30;;;0.79;68.55;96717.19;4951170;28;20702;-72
2021/04/15 01:21:55;;;;;;;8.32;5.03;;;2.60;69.60;;;0.73;68.93;96713.31;4947478;28;20130;-72
2021/04/15 01:24:41;;;;;;;7.72;5.55;;;2.60;69.70;;;0.69;68.80;96713.66;4951864;28;20035;-72
2021/04/15 01:27:31;;;;;;;11.75;5.53;;;2.60;69.80;;;0.67;68.73;96712.91;4965224;28;20038;-71
2021/04/15 01:30:32;;;;;;;6.28;4.90;;;2.50;69.70;;;0.63;69.04;96711.50;4980673;28;20053;-72
2021/04/15 01:33:18;;;;;;;7.88;5.60;;;2.50;69.80;;;0.61;68.82;96719.38;4933227;28;20409;-72
2021/04/15 01:35:52;;;;;;;8.68;5.53;;;2.50;69.70;;;0.57;68.48;96711.00;4962433;28;20039;-72
2021/04/15 01:38:34;;;;;;;8.88;5.50;;;2.50;69.70;;;0.53;68.78;96707.00;4948076;28;20046;-71
2021/04/15 01:41:30;;;;;;;7.88;5.50;;;2.50;69.90;;;0.50;69.21;96699.47;4934422;28;20050;-71
2021/04/15 01:44:03;;;;;;;7.93;5.18;;;2.40;69.80;;;0.45;68.38;96704.13;4936550;28;20503;-72
2021/04/15 01:46:31;;;;;;;7.20;5.43;;;2.40;70.00;;;0.44;67.30;96702.47;4949111;28;20294;-71
2021/04/15 01:48:57;;;;;;;17.92;6.57;;;2.40;70.20;;;0.41;67.52;96702.72;4933764;28;20100;-72
2021/04/15 01:51:33;;;;;;;8.43;5.55;;;2.40;70.10;;;0.41;68.05;96702.72;4950539;28;20081;-72
2021/04/15 01:54:13;;;;;;;7.68;5.38;;;2.40;70.10;;;0.39;69.05;96699.41;4942361;28;20108;-71
2021/04/15 01:56:55;;;;;;;10.50;6.18;;;2.30;69.80;;;0.36;69.01;96704.81;4950140;28;20038;-72
2021/04/15 01:59:29;;;;;;;;;;;2.40;69.80;;;0.35;69.85;96703.16;4936577;28;20715;-72
2021/04/15 02:02:01;;;;;;;8.30;5.82;;;2.40;69.80;;;0.33;67.65;96705.03;4934259;28;19945;-72
2021/04/15 02:04:30;;;;;;;8.38;5.78;;;2.30;69.90;;;0.31;68.12;96696.56;4936933;28;20090;-72
2021/04/15 02:07:09;;;;;;;9.35;6.20;;;2.20;70.00;;;0.29;69.11;96698.44;4934260;28;20031;-72
2021/04/15 02:09:36;;;;;;;9.68;5.80;;;2.20;70.20;;;0.29;67.65;96698.44;4948282;28;20618;-73
2021/04/15 02:12:29;;;;;;;9.60;5.93;;;2.20;70.30;;;0.26;68.61;96704.66;4940256;28;20038;-71
2021/04/15 02:15:44;;;;;;;9.80;6.28;;;2.10;70.10;;;0.23;69.41;96698.88;4952494;28;20062;-72
2021/04/15 02:18:11;;;;;;;9.02;5.65;;;2.10;70.50;;;0.17;67.52;96704.47;4950710;28;20054;-71
2021/04/15 02:20:36;;;;;;;13.25;6.45;;;2.10;70.50;;;0.15;68.02;96703.78;4931924;28;20081;-72
2021/04/15 02:23:22;;;;;;;30.38;20.55;;;2.10;70.60;;;0.16;70.88;96700.25;4933031;28;20035;-71
2021/04/15 02:26:08;;;;;;;32.88;22.88;;;2.20;71.40;;;0.16;70.56;96698.47;4965250;28;20039;-71
2021/04/15 02:28:50;;;;;;;19.67;13.27;;;2.20;71.20;;;0.17;70.51;96692.38;4950463;28;20031;-72
2021/04/15 02:31:43;;;;;;;21.42;14.43;;;2.20;71.20;;;0.17;70.16;96696.72;4976095;28;20038;-72
2021/04/15 02:34:16;;;;;;;48.88;30.33;;;2.20;70.90;;;0.15;69.06;96701.19;4946161;28;20112;-72
2021/04/15 02:36:45;;;;;;;67.07;44.92;;;2.10;70.50;;;0.12;69.20;96698.81;4948294;28;20038;-72
2021/04/15 02:39:16;;;;;;;14.13;10.15;;;2.10;70.60;;;0.09;68.76;96701.63;4959381;28;20486;-71
2021/04/15 02:41:42;;;;;;;9.70;6.60;;;2.10;70.30;;;0.05;68.09;96695.03;4934120;28;20050;-72
2021/04/15 02:44:12;;;;;;;9.15;6.00;;;2.00;70.20;;;0.02;68.86;96695.25;4928629;28;20094;-71
2021/04/15 02:46:52;;;;;;;9.70;5.93;;;2.00;70.30;;;0.00;69.28;96705.72;4931494;28;20193;-71
2021/04/15 02:49:18;;;;;;;7.50;5.72;;;2.00;70.20;;;-0.06;68.33;96694.03;4924396;28;20031;-71
2021/04/15 02:51:54;;;;;;;7.70;5.13;;;1.90;70.10;;;-0.07;69.35;96701.88;4933169;28;20562;-71
2021/04/15 02:54:29;;;;;;;6.80;5.30;;;1.90;70.00;;;-0.09;69.40;96694.25;4933701;28;20027;-71
2021/04/15 02:57:17;;;;;;;8.30;5.10;;;1.80;70.10;;;-0.12;69.72;96699.63;4937527;28;20027;-71
2021/04/15 02:59:58;;;;;;;17.58;12.73;;;1.80;70.20;;;-0.12;71.02;96694.47;4950410;28;20039;-71
2021/04/15 03:02:33;;;;;;;29.77;21.05;;;1.90;70.90;;;-0.09;70.04;96694.25;4939367;28;20031;-71
2021/04/15 03:05:24;;;;;;;19.65;14.05;;;2.00;71.50;;;-0.07;69.74;96697.53;4938834;28;20570;-70
2021/04/15 03:07:51;;;;;;;10.07;6.20;;;1.90;70.50;;;-0.12;68.56;96691.88;4948519;28;20403;-73
2021/04/15 03:10:22;;;;;;;8.43;5.47;;;1.90;69.70;;;-0.12;68.20;96688.47;4945540;28;20039;-71
2021/04/15 03:12:52;;;;;;;6.53;5.28;;;1.90;69.50;;;-0.16;68.75;96684.44;4917958;28;20039;-71
2021/04/15 03:15:25;;;;;;;7.82;4.88;;;1.90;69.20;;;-0.17;68.70;96691.38;4949817;28;20091;-70
2021/04/15 03:17:54;;;;;;;7.70;5.18;;;1.80;69.20;;;-0.20;68.24;96693.38;4933032;28;20133;-71
2021/04/15 03:20:49;;;;;;;8.13;5.57;;;1.80;69.20;;;-0.22;69.59;96693.47;4947556;28;20042;-71
2021/04/15 03:23:35;;;;;;;8.27;5.13;;;1.80;69.30;;;-0.24;69.27;96694.50;4922364;28;20031;-70
2021/04/15 03:26:06;;;;;;;8.75;5.13;;;1.70;69.00;;;-0.25;68.19;96698.81;4949955;28;20071;-71
2021/04/15 03:28:35;;;;;;;8.10;5.00;;;1.70;69.30;;;-0.26;68.29;96697.19;4945635;28;20043;-71
2021/04/15 03:31:09;;;;;;;8.13;4.88;;;1.70;69.00;;;-0.29;68.64;96702.56;4931361;28;20050;-71
2021/04/15 03:34:02;;;;;;;7.72;4.95;;;1.70;68.90;;;-0.33;69.06;96704.53;4929693;28;20054;-72
2021/04/15 03:36:34;;;;;;;8.23;4.72;;;1.70;68.70;;;-0.37;68.41;96707.47;4944335;28;20070;-72
2021/04/15 03:39:23;;;;;;;7.97;4.72;;;1.60;68.90;;;-0.40;68.68;96708.50;4917530;28;20518;-71
2021/04/15 03:41:54;;;;;;;6.35;4.95;;;1.60;68.80;;;-0.44;68.03;96712.25;4936814;28;20042;-71
2021/04/15 03:44:28;;;;;;;7.78;5.00;;;1.50;68.90;;;-0.46;68.23;96711.50;4936705;28;20039;-72
2021/04/15 03:47:06;;;;;;;6.57;4.45;;;1.40;69.40;;;-0.50;68.83;96709.22;4941105;28;20042;-72
2021/04/15 03:49:58;;;;;;;8.73;5.47;;;1.50;69.90;;;-0.55;69.84;96706.97;4944321;28;20042;-74
2021/04/15 03:52:56;;;;;;;8.60;5.90;;;1.40;70.10;;;-0.57;70.29;96713.19;4943456;28;20101;-75
2021/04/15 03:55:32;;;;;;;9.75;5.50;;;1.40;70.30;;;-0.62;69.66;96711.75;4926034;28;20047;-68
2021/04/15 03:58:03;;;;;;;10.55;5.88;;;1.40;70.40;;;-0.65;68.88;96711.94;4951878;28;20035;-68
2021/04/15 04:00:33;;;;;;;9.13;5.45;;;1.30;70.70;;;-0.66;68.85;96715.47;4920933;28;20035;-68
2021/04/15 04:03:10;;;;;;;8.50;5.50;;;1.30;70.70;;;-0.67;69.77;96710.41;4951323;28;20031;-66
2021/04/15 04:06:00;;;;;;;8.43;5.88;;;1.30;70.80;;;-0.69;70.41;96710.47;4925166;28;20031;-66
2021/04/15 04:08:41;;;;;;;7.47;5.28;;;1.30;70.80;;;-0.72;69.83;96709.88;4962087;28;20462;-72
2021/04/15 04:11:08;;;;;;;9.93;5.75;;;1.20;70.70;;;-0.75;68.91;96710.91;4918904;28;20546;-72
2021/04/15 04:13:36;;;;;;;12.10;5.63;;;1.20;70.90;;;-0.76;68.60;96709.25;4922437;28;20443;-73
2021/04/15 04:16:43;;;;;;;11.05;5.28;;;1.20;70.90;;;-0.78;70.89;96716.28;4937470;28;20455;-72
2021/04/15 04:19:51;;;;;;;9.43;5.10;;;1.20;70.80;;;-0.79;70.41;96714.63;4961586;28;20455;-72
2021/04/15 04:22:53;;;;;;;9.50;5.55;;;1.20;70.70;;;-0.80;70.60;96714.75;4946767;28;20593;-73
2021/04/15 04:25:43;;;;;;;8.93;5.63;;;1.20;70.70;;;-0.83;69.68;96708.03;4944486;28;20514;-73
2021/04/15 04:28:27;;;;;;;7.28;5.40;;;1.20;70.50;;;-0.85;70.22;96714.25;4964629;28;20454;-72
2021/04/15 04:31:03;;;;;;;8.23;5.45;;;1.10;70.60;;;-0.85;69.90;96714.25;4953215;28;20046;-72
2021/04/15 04:33:41;;;;;;;7.60;5.63;;;1.20;70.60;;;-0.85;69.74;96719.41;4935162;28;20264;-72
2021/04/15 04:36:08;;;;;;;9.10;5.75;;;1.10;70.50;;;-0.87;69.02;96709.19;4936702;28;20039;-72
2021/04/15 04:38:33;;;;;;;8.98;5.72;;;1.20;70.40;;;-0.88;68.89;96706.69;4936746;28;20694;-72
2021/04/15 04:41:00;;;;;;;8.23;4.75;;;1.10;70.10;;;-0.86;68.91;96707.41;4937499;28;20042;-72
2021/04/15 04:43:44;;;;;;;7.88;5.20;;;1.10;70.10;;;-0.87;70.04;96716.91;4937626;28;20045;-72
2021/04/15 04:46:30;;;;;;;8.32;5.32;;;1.10;70.10;;;-0.84;70.21;96716.72;4939810;28;20039;-71
2021/04/15 04:49:10;;;;;;;8.93;5.43;;;1.20;70.00;;;-0.84;69.64;96716.72;4939949;28;20450;-72
2021/04/15 04:52:05;;;;;;;8.45;5.72;;;1.20;69.90;;;-0.85;69.93;96715.06;4922716;28;20039;-74
2021/04/15 04:54:31;;;;;;;8.25;5.30;;;1.20;69.90;;;-0.84;69.04;96721.88;4943736;28;20033;-72
2021/04/15 04:57:13;;;;;;;10.30;5.28;;;1.20;69.90;;;-0.85;68.78;96715.06;4938347;28;20043;-76
2021/04/15 04:59:49;;;;;;;9.75;5.80;;;1.30;70.00;;;-0.82;69.52;96724.34;4954449;28;20035;-74
2021/04/15 05:02:15;;;;;;;10.00;5.53;;;1.30;70.00;;;-0.81;68.79;96721.66;4936334;28;20828;-68
2021/04/15 05:04:43;;;;;;;15.27;8.77;;;1.20;70.00;;;-0.78;69.13;96726.63;4958492;28;20566;-67
2021/04/15 05:07:22;;;;;;;13.43;6.97;;;1.30;70.40;;;-0.76;70.23;96724.75;4952768;28;20067;-65
2021/04/15 05:09:48;;;;;;;8.95;6.32;;;1.40;70.20;;;-0.74;69.24;96728.06;4939069;28;20057;-65
2021/04/15 05:12:28;;;;;;;10.05;5.53;;;1.40;70.10;;;-0.69;70.67;96725.97;4934985;28;20066;-75
2021/04/15 05:14:55;;;;;;;10.85;5.63;;;1.50;70.20;;;-0.66;68.86;96727.56;4953469;28;20031;-75
2021/04/15 05:17:24;;;;;;;8.15;5.72;;;1.50;70.10;;;-0.60;69.58;96721.13;4944844;28;20055;-71
2021/04/15 05:19:50;;;;;;;8.82;5.78;;;1.60;69.90;;;-0.58;69.32;96727.84;4948493;28;20415;-72
2021/04/15 05:22:33;;;;;;;10.18;6.13;;;1.60;69.70;;;-0.48;70.17;96728.03;4950149;28;20042;-73
2021/04/15 05:25:05;;;;;;;13.27;6.15;;;1.70;69.40;;;-0.43;69.92;96731.16;4976097;28;20033;-71
2021/04/15 05:27:33;;;;;;;10.60;5.78;;;1.70;69.30;;;-0.38;68.97;96729.06;4951927;28;20055;-70
2021/04/15 05:30:36;;;;;;;9.90;5.57;;;1.80;68.90;;;-0.32;70.26;96734.63;4940042;28;20090;-69
2021/04/15 05:33:04;;;;;;;9.30;5.90;;;2.00;68.80;;;-0.22;69.13;96732.25;4940776;28;20046;-68
2021/04/15 05:35:41;;;;;;;7.40;6.10;;;2.10;68.30;;;-0.15;69.92;96730.88;4945353;28;20069;-68
2021/04/15 05:38:07;;;;;;;9.85;5.93;;;2.20;68.10;;;-0.06;69.01;96730.22;4957219;28;20510;-69
2021/04/15 05:40:35;;;;;;;8.80;5.47;;;2.30;67.70;;;0.07;68.86;96737.13;4969703;28;20038;-69
2021/04/15 05:43:04;;;;;;;8.50;5.80;;;2.40;67.00;;;0.18;68.78;96734.59;4960629;28;20745;-70
2021/04/15 05:45:30;;;;;;;12.57;5.93;;;2.60;66.60;;;0.27;68.19;96728.78;4977213;28;20047;-68
2021/04/15 05:48:06;;;;;;;8.90;5.82;;;2.60;66.20;;;0.38;68.82;96734.00;4945123;28;20134;-68
2021/04/15 05:50:44;;;;;;;7.28;5.60;;;2.80;66.00;;;0.53;68.24;96732.88;4957673;28;20498;-69
2021/04/15 05:53:40;;;;;;;8.23;5.55;;;3.00;65.40;;;0.69;67.77;96736.97;4945744;28;20039;-67
2021/04/15 05:56:13;;;;;;;7.00;5.47;;;3.10;65.00;;;0.79;67.49;96741.34;4957096;28;20075;-68
2021/04/15 05:59:09;;;;;;;10.93;6.50;;;3.20;64.60;;;0.95;67.89;96730.69;4951979;28;20585;-67
2021/04/15 06:01:46;;;;;;;8.02;5.65;;;3.40;64.10;;;1.12;67.25;96735.41;4970957;28;20466;-68
2021/04/15 06:04:38;;;;;;;12.25;6.00;;;3.60;63.50;;;1.31;66.56;96731.44;4942166;28;20500;-71
2021/04/15 06:07:05;;;;;;;9.10;5.82;;;3.90;62.80;;;1.43;66.87;96740.88;4964720;28;20057;-65
2021/04/15 06:09:30;;;;;;;9.50;6.55;;;4.00;62.50;;;1.53;66.64;96739.22;4969885;28;20030;-70
2021/04/15 06:12:04;;;;;;;7.07;6.07;;;3.90;61.50;;;1.65;66.16;96735.69;4935632;28;20050;-67
2021/04/15 06:14:51;;;;;;;12.23;7.07;;;4.10;61.20;;;1.78;64.97;96736.38;4966070;28;20041;-68
2021/04/15 06:17:34;;;;;;;10.05;6.30;;;4.30;61.20;;;1.89;65.36;96737.34;4987976;28;20042;-70
2021/04/15 06:20:28;;;;;;;7.70;6.47;;;4.40;60.60;;;2.03;64.95;96737.06;4951597;28;20078;-69
2021/04/15 06:23:06;;;;;;;8.13;6.28;;;4.60;59.90;;;2.18;64.40;96735.03;4967393;28;20660;-69
2021/04/15 06:25:38;;;;;;;8.38;5.57;;;4.70;59.70;;;2.32;64.55;96742.56;4965546;28;20046;-64
2021/04/15 06:28:10;;;;;;;8.38;6.25;;;4.90;59.20;;;2.50;64.23;96741.09;4959511;28;20043;-69
2021/04/15 06:31:02;;;;;;;11.18;6.78;;;5.10;59.40;;;2.70;63.95;96742.88;4923669;28;20045;-69
2021/04/15 06:33:27;;;;;;;;;;;5.20;59.30;;;2.87;63.29;96744.13;4962580;28;20092;-69
2021/04/15 06:35:54;;;;;;;10.60;6.55;;;5.40;58.40;;;2.96;63.38;96742.56;4980655;28;19918;-65
2021/04/15 06:38:44;;;;;;;9.20;6.55;;;5.30;57.40;;;3.10;62.59;96744.00;4946046;28;20046;-69
2021/04/15 06:42:05;;;;;;;10.73;6.33;;;5.50;57.20;;;3.20;61.56;96755.31;4926213;28;20027;-70
2021/04/15 06:44:49;;;;;;;8.93;6.30;;;5.60;57.60;;;3.33;62.14;96755.91;4962022;28;20270;-71
2021/04/15 06:48:11;;;;;;;22.15;13.77;;;5.90;57.10;;;3.52;62.23;96756.03;4992147;28;20518;-71
2021/04/15 06:51:10;;;;;;;21.25;14.00;;;6.20;56.80;;;3.69;61.65;96750.22;4892293;29;20173;-68
2021/04/15 06:54:18;;;;;;;11.95;7.18;;;6.40;56.30;;;3.87;61.51;96752.22;4892314;29;20774;-68
2021/04/15 06:57:21;;;;;;;8.52;6.60;;;6.70;56.20;;;4.01;60.92;96754.44;4960942;28;20043;-73
2021/04/15 07:00:33;;;;;;;10.25;6.57;;;6.70;54.30;;;4.17;60.49;96746.97;4968582;28;20067;-70
2021/04/15 07:03:20;;;;;;;8.82;6.10;;;6.80;54.50;;;4.32;61.44;96749.19;4877928;29;20034;-69
2021/04/15 07:05:50;;;;;;;11.48;6.97;;;7.20;54.10;;;4.52;61.64;96753.47;4963191;28;20519;-70
2021/04/15 07:08:50;;;;;;;11.45;7.30;;;7.40;53.40;;;4.70;59.11;96749.22;4934275;28;20541;-70
2021/04/15 07:11:44;;;;;;;10.25;6.13;;;7.50;51.90;;;4.85;58.96;96744.44;4990674;28;20034;-68
2021/04/15 07:14:42;;;;;;;9.05;6.40;;;7.80;50.60;;;5.07;57.97;96751.97;4972934;28;20414;-69
2021/04/15 07:17:26;;;;;;;8.73;6.18;;;8.10;50.20;;;5.32;57.80;96749.75;4952935;28;20033;-69
2021/04/15 07:20:18;;;;;;;7.90;6.22;;;8.50;49.70;;;5.54;58.04;96745.03;4968528;28;20045;-67
2021/04/15 07:23:08;;;;;;;11.57;7.20;;;8.60;48.50;;;5.79;57.94;96754.00;4965253;28;20035;-70
2021/04/15 07:25:59;;;;;;;8.30;5.90;;;8.90;49.00;;;6.07;56.21;96757.47;4976641;28;20042;-69
2021/04/15 07:28:58;;;;;;;12.50;7.03;;;9.30;47.00;;;6.25;55.80;96754.09;4969166;28;20274;-69
2021/04/15 07:31:49;;;;;;;9.40;6.07;;;9.40;47.00;;;6.52;55.20;96755.88;4952588;28;20497;-66
2021/04/15 07:35:01;;;;;;;7.95;5.75;;;9.80;46.40;;;6.77;54.66;96760.38;4973900;28;20455;-68
2021/04/15 07:38:01;;;;;;;8.23;5.78;;;10.10;44.70;;;6.99;54.21;96753.84;4953212;28;20034;-68
2021/04/15 07:40:46;;;;;;;8.07;5.30;;;10.40;43.80;;;7.30;54.19;96752.50;4954737;28;20042;-69
2021/04/15 07:43:47;;;;;;;11.23;5.40;;;10.80;43.20;;;7.63;52.62;96761.38;4941215;28;20470;-67
2021/04/15 07:46:53;;;;;;;8.15;5.53;;;11.10;41.90;;;7.95;51.87;96752.91;4944105;28;20038;-67
2021/04/15 07:50:09;;;;;;;9.35;6.05;;;11.30;42.00;;;8.36;51.87;96750.44;4956930;28;20746;-68
2021/04/15 07:53:12;;;;;;;8.48;4.90;;;11.60;42.00;;;8.80;50.98;96758.91;4950357;28;20051;-68
2021/04/15 07:56:05;;;;;;;7.43;4.82;;;12.10;41.30;;;9.14;48.77;96761.44;4966516;28;20036;-68
2021/04/15 07:58:45;;;;;;;7.78;5.00;;;12.10;38.70;;;9.40;48.72;96756.00;4955445;28;20038;-67
2021/04/15 08:01:48;;;;;;;9.57;7.33;;;12.60;37.70;;;9.72;48.09;96752.50;4954651;28;20038;-68
2021/04/15 08:05:10;;;;;;;8.40;5.22;;;12.80;38.50;;;10.22;45.55;96761.94;4953579;28;20279;-68
2021/04/15 08:08:03;;;;;;;9.63;5.03;;;13.50;37.10;;;10.46;46.06;96752.31;4969669;28;20042;-68
2021/04/15 08:11:15;;;;;;;15.35;5.20;;;13.20;36.50;;;10.68;46.02;96751.53;4957127;28;20062;-70
2021/04/15 08:14:20;;;;;;;14.70;5.43;;;13.20;36.40;;;10.88;44.23;96757.16;4951083;28;20407;-68
2021/04/15 08:17:13;;;;;;;12.63;6.75;;;13.80;35.80;;;11.29;44.21;96760.28;4960441;28;20035;-68
2021/04/15 08:20:00;;;;;;;12.93;8.15;;;14.40;34.80;;;11.73;43.37;96759.59;4958742;28;20420;-69
2021/04/15 08:23:02;;;;;;;7.50;4.82;;;14.90;33.90;;;12.02;42.36;96758.84;4976788;28;20132;-70
2021/04/15 08:26:12;;;;;;;10.88;7.18;;;15.00;32.20;;;11.96;40.27;96758.53;4957570;28;20050;-67
2021/04/15 08:28:59;;;;;;;9.98;6.93;;;14.80;32.00;;;11.97;41.68;96759.38;4968037;28;20049;-70
2021/04/15 08:31:46;;;;;;;11.13;5.05;;;15.20;31.10;;;12.18;41.85;96761.28;4967612;28;20073;-71
2021/04/15 08:34:19;;;;;;;8.80;4.45;;;15.40;32.30;;;12.39;40.65;96764.00;4967119;28;20391;-69
2021/04/15 08:37:23;;;;;;;7.20;4.50;;;15.40;30.50;;;12.43;38.91;96749.41;4963140;28;20081;-69
2021/04/15 08:40:21;;;;;;;9.75;4.43;;;15.00;30.20;;;12.36;39.96;96756.44;4979603;28;20161;-69
2021/04/15 08:43:01;;;;;;;7.20;4.10;;;15.30;30.80;;;12.35;39.34;96743.44;4935957;28;20051;-71
2021/04/15 08:46:11;;;;;;;6.22;4.18;;;15.40;29.40;;;12.46;39.86;96743.00;4955507;28;20035;-68
2021/04/15 08:49:05;;;;;;;6.93;4.55;;;15.60;31.00;;;12.67;39.44;96745.66;4975185;28;20043;-68
2021/04/15 08:51:40;;;;;;;8.45;5.47;;;15.60;30.30;;;12.77;38.43;96743.53;4953250;28;20039;-68
2021/04/15 08:54:30;;;;;;;7.55;4.63;;;15.80;29.00;;;13.00;38.26;96742.56;4966380;28;20035;-69
2021/04/15 08:57:05;;;;;;;7.03;4.40;;;16.40;28.20;;;13.05;38.18;96733.06;4975857;28;20400;-69
2021/04/15 09:00:23;;;;;;;6.97;4.20;;;16.50;28.50;;;13.30;37.42;96736.16;4977145;28;20078;-70
2021/04/15 09:03:09;;;;;;;7.15;4.13;;;16.70;28.50;;;13.54;41.34;96736.75;4981290;28;20106;-68
2021/04/15 09:05:59;;;;;;;5.70;3.80;;;16.80;28.40;;;13.68;35.05;96738.50;4964843;28;20098;-71
2021/04/15 09:08:37;;;;;;;4.85;3.30;;;16.60;27.30;;;13.52;37.71;96736.13;4955059;28;20050;-70
2021/04/15 09:11:13;;;;;;;6.57;3.42;;;16.30;28.20;;;13.29;36.64;96742.44;4941084;28;20463;-70
2021/04/15 09:14:22;;;;;;;7.13;3.90;;;15.90;28.90;;;12.91;36.15;96735.78;4970585;28;20541;-68
2021/04/15 09:17:12;;;;;;;7.72;4.10;;;15.30;29.00;;;12.56;37.81;96738.22;4960291;28;20043;-64
2021/04/15 09:20:11;;;;;;;6.65;3.55;;;14.80;30.60;;;12.14;36.10;96737.09;4967790;28;20050;-70
2021/04/15 09:23:03;;;;;;;8.45;3.63;;;14.10;30.40;;;11.72;36.78;96740.31;4946619;28;20027;-71
2021/04/15 09:26:08;;;;;;;6.75;3.50;;;13.60;31.40;;;11.29;38.79;96744.50;4958627;28;20069;-69
2021/04/15 09:29:31;;;;;;;7.90;3.97;;;13.20;32.70;;;10.89;38.40;96743.00;4954658;28;20126;-71
2021/04/15 09:32:00;;;;;;;6.60;3.45;;;13.10;32.90;;;10.53;40.41;96740.09;4884347;29;20064;-69
2021/04/15 09:34:58;;;;;;;6.72;4.05;;;12.70;33.00;;;10.23;38.44;96747.81;4917824;29;20093;-70
2021/04/15 09:38:16;;;;;;;6.20;4.15;;;12.50;33.00;;;9.91;38.05;96737.34;4959062;28;20039;-70
2021/04/15 09:40:51;;;;;;;5.82;4.13;;;12.20;32.60;;;9.70;37.97;96733.47;4960838;28;20082;-69
2021/04/15 09:43:38;;;;;;;5.03;3.75;;;12.10;32.20;;;9.50;38.24;96740.91;4962222;28;20042;-69
2021/04/15 09:46:16;;;;;;;6.28;3.88;;;11.90;32.10;;;9.35;39.11;96739.13;4971469;28;20047;-69
2021/04/15 09:49:15;;;;;;;5.47;3.45;;;11.80;32.90;;;9.31;39.71;96735.19;4959648;28;20030;-70
2021/04/15 09:51:40;;;;;;;8.52;5.47;;;12.00;33.40;;;9.28;40.66;96746.00;4958635;28;20072;-72
2021/04/15 09:54:58;;;;;;;13.30;8.48;;;12.10;33.40;;;9.36;40.38;96743.38;4958443;28;20058;-70
2021/04/15 09:57:49;;;;;;;6.65;4.55;;;12.30;33.40;;;9.38;38.93;96741.41;4970288;28;20049;-72
2021/04/15 10:00:32;;;;;;;;;;;12.50;32.50;;;9.49;39.46;96739.25;4966899;28;20395;-68
2021/04/15 10:03:07;;;;;;;6.93;3.70;;;12.50;33.50;;;9.63;39.11;96735.13;4943297;28;19941;-68
2021/04/15 10:05:59;;;;;;;4.70;2.85;;;12.60;32.90;;;9.75;38.61;96733.81;4956613;28;20403;-68
2021/04/15 10:08:48;;;;;;;3.25;2.10;;;12.80;31.30;;;9.87;36.16;96736.88;4954779;28;20034;-68
2021/04/15 10:11:24;;;;;;;3.40;1.80;;;13.00;28.60;;;10.35;35.69;96735.09;4931098;28;20050;-71
2021/04/15 10:14:38;;;;;;;2.90;1.55;;;14.70;25.90;;;11.11;32.75;96730.84;4945853;28;20027;-69
2021/04/15 10:17:44;;;;;;;3.55;1.80;;;15.90;23.60;;;11.59;32.79;96727.78;4942118;28;20058;-73
2021/04/15 10:20:38;;;;;;;3.25;2.10;;;15.70;23.70;;;11.92;32.38;96725.63;4965629;28;20030;-72
2021/04/15 10:23:15;;;;;;;4.05;2.20;;;16.40;23.00;;;12.40;34.02;96718.13;4937088;28;20051;-68
2021/04/15 10:25:59;;;;;;;3.10;2.00;;;17.30;23.00;;;12.68;31.56;96720.09;4962239;28;20192;-67
2021/04/15 10:29:09;;;;;;;4.28;1.80;;;16.90;22.60;;;13.03;30.15;96715.75;4932368;28;20062;-69
2021/04/15 10:31:41;;;;;;;3.70;2.25;;;17.60;21.20;;;13.49;32.32;96709.06;4926928;28;20446;-71
2021/04/15 10:35:03;;;;;;;3.45;2.42;;;19.20;19.40;;;14.35;28.52;96704.28;4947059;28;20031;-69
2021/04/15 10:37:41;;;;;;;4.32;2.08;;;21.30;17.40;;;14.64;34.10;96700.53;4967002;28;20106;-74
2021/04/15 10:40:30;;;;;;;3.67;2.17;;;20.30;18.60;;;14.84;31.06;96702.41;4962755;28;20468;-74
2021/04/15 10:43:37;;;;;;;3.13;2.20;;;20.70;18.10;;;14.99;28.26;96701.22;4957313;28;20046;-67
2021/04/15 10:46:29;;;;;;;3.65;2.63;;;20.10;19.00;;;14.84;28.66;96699.78;4934002;28;20038;-67
2021/04/15 10:49:12;;;;;;;4.50;2.70;;;18.50;20.10;;;14.45;29.92;96706.56;4948571;28;20039;-66
2021/04/15 10:51:50;;;;;;;6.15;2.80;;;17.70;21.30;;;14.12;29.36;96713.53;4949245;28;20149;-67
2021/04/15 10:54:37;;;;;;;8.30;5.13;;;16.90;22.10;;;13.66;30.08;96708.78;4932795;28;20054;-66
2021/04/15 10:57:20;;;;;;;4.13;2.70;;;16.00;24.50;;;13.19;31.27;96710.25;4935338;28;20038;-66
2021/04/15 10:59:48;;;;;;;3.03;2.58;;;15.30;25.90;;;12.75;33.18;96711.22;4966393;28;20067;-69
2021/04/15 11:02:33;;;;;;;3.15;2.60;;;14.70;27.20;;;12.32;33.17;96714.78;4948872;28;20105;-67
2021/04/15 11:05:25;;;;;;;4.63;2.42;;;14.10;28.60;;;11.81;34.17;96718.19;4981695;28;20118;-69
2021/04/15 11:07:51;;;;;;;4.70;3.00;;;13.60;30.10;;;11.36;35.53;96721.75;4964440;28;20577;-69
2021/04/15 11:10:29;;;;;;;4.90;3.22;;;12.80;32.10;;;10.88;36.26;96710.59;4949531;28;20121;-69
2021/04/15 11:13:09;;;;;;;6.47;3.50;;;12.40;32.70;;;10.51;36.87;96716.59;4970268;28;20033;-72
2021/04/15 11:15:59;;;;;;;4.82;3.00;;;12.10;32.80;;;10.05;37.61;96713.81;4980827;28;20458;-69
2021/04/15 11:18:35;;;;;;;5.97;2.90;;;11.40;35.80;;;9.76;39.71;96709.16;4969976;28;20042;-71
2021/04/15 11:21:24;;;;;;;7.32;4.30;;;11.30;37.50;;;9.52;39.46;96707.44;4956435;28;20030;-71
2021/04/15 11:23:53;;;;;;;4.20;3.15;;;11.30;36.50;;;9.45;37.88;96705.59;4957875;28;20035;-70
2021/04/15 11:26:29;;;;;;;5.57;2.67;;;11.50;36.50;;;9.42;37.71;96701.50;4919943;28;20536;-69
2021/04/15 11:28:57;;;;;;;3.85;2.28;;;11.40;34.50;;;9.39;37.82;96701.03;4964825;28;20061;-67
2021/04/15 11:31:39;;;;;;;3.80;2.42;;;11.40;34.20;;;9.37;38.13;96705.63;4948257;28;20125;-67